»·PEaware :: N857CP L88-KSBP

N857CP :: L88-KSBP

FLIGHT INFORMATION

Flight Status: Arrived
Operator: Privately registered:
United States
More flights under this callsign
Pilot: Sholto D. (19838)
Aircraft: CESSNA 172 SKYHAWK
(C172)
More flights by this aircraft type
Origin: L88 New Cuyama
United States
Destination: KSBP San Luis Co Regl
United States
More flights between these airports :: More routes between these airports
Route: L88 FLW KSBP
File this flight plan on PilotEdge
Remarks: Cat2
Altitude:
(Current/Filed)
4,500ft
Speed:
(Current/Filed)
115kts
Departed: 31-Jul-18 04:53 PM
Arrived: 31-Jul-18 05:41 PM
Distance/Time
Traveled:
50nm/0:48
Distance/Time
To Go:
Arrived

Flight Plot

Page will automatically refresh every two minutes.


Map Options




Map Legend


Flown Route
Filed Route
Departure Airport
Arrival Airport
Navaid (VOR, NDB)
Fix

Horizontal Profiles

Position Reports

Time Latitude Longitude Heading Altitude Ground
Speed
31-Jul-18 16:42 34.942856 -119.690285 204 2156ft 0kts
31-Jul-18 16:43 34.942856 -119.690285 204 2156ft 0kts
31-Jul-18 16:44 34.942856 -119.690285 204 2156ft 0kts
31-Jul-18 16:45 34.942856 -119.690285 204 2156ft 0kts
31-Jul-18 16:46 34.942856 -119.690285 204 2156ft 0kts
31-Jul-18 16:47 34.942889 -119.690853 287 2155ft 0kts
31-Jul-18 16:48 34.942463 -119.690825 115 2156ft 0kts
31-Jul-18 16:49 34.942317 -119.690650 175 2157ft 0kts
31-Jul-18 16:50 34.942317 -119.690650 175 2157ft 0kts
31-Jul-18 16:51 34.942306 -119.690649 179 2157ft 0kts
31-Jul-18 16:52 34.940708 -119.687418 117 2168ft 25kts
31-Jul-18 16:53 34.937805 -119.680514 117 2198ft 23kts
31-Jul-18 16:54 34.940545 -119.686780 295 2261ft 77kts
31-Jul-18 16:55 34.954470 -119.707880 313 3108ft 86kts
31-Jul-18 16:56 34.974565 -119.727315 322 3855ft 88kts
31-Jul-18 16:57 34.995597 -119.745806 322 4461ft 94kts
31-Jul-18 16:58 35.015387 -119.767770 310 4884ft 102kts
31-Jul-18 16:59 35.036631 -119.799489 311 4533ft 131kts
31-Jul-18 17:00 35.061248 -119.828646 316 4284ft 108kts
31-Jul-18 17:01 35.082464 -119.850119 324 4203ft 97kts
31-Jul-18 17:02 35.090210 -119.881413 283 4315ft 97kts
31-Jul-18 17:03 35.096703 -119.913719 284 4502ft 101kts
31-Jul-18 17:04 35.103195 -119.947332 290 4703ft 101kts
31-Jul-18 17:05 35.113021 -119.979212 288 4813ft 111kts
31-Jul-18 17:06 35.121837 -120.013707 288 4481ft 90kts
31-Jul-18 17:07 35.128735 -120.041615 288 4483ft 92kts
31-Jul-18 17:08 35.136441 -120.072607 288 4488ft 97kts
31-Jul-18 17:09 35.144378 -120.104603 288 4491ft 98kts
31-Jul-18 17:10 35.152221 -120.136855 287 4493ft 99kts
31-Jul-18 17:11 35.159370 -120.166345 288 4486ft 83kts
31-Jul-18 17:12 35.164767 -120.192979 284 4484ft 79kts
31-Jul-18 17:13 35.169587 -120.218903 284 4484ft 77kts
31-Jul-18 17:14 35.174318 -120.244588 284 4485ft 77kts
31-Jul-18 17:15 35.178931 -120.270056 284 4485ft 76kts
31-Jul-18 17:16 35.183425 -120.295495 284 4479ft 76kts
31-Jul-18 17:17 35.188835 -120.325471 284 4086ft 97kts
31-Jul-18 17:18 35.194785 -120.358221 284 3688ft 99kts
31-Jul-18 17:19 35.182272 -120.380037 158 3282ft 115kts
31-Jul-18 17:20 35.174475 -120.344385 89 2881ft 114kts
31-Jul-18 17:21 35.173279 -120.308746 89 2822ft 97kts
31-Jul-18 17:22 35.169403 -120.273781 99 3225ft 116kts
31-Jul-18 17:23 35.173609 -120.242899 320 3472ft 116kts
31-Jul-18 17:24 35.175369 -120.279937 273 3436ft 103kts
31-Jul-18 17:25 35.177926 -120.313275 279 3477ft 93kts
31-Jul-18 17:26 35.182710 -120.346779 282 3504ft 103kts
31-Jul-18 17:27 35.190150 -120.377019 299 3492ft 102kts
31-Jul-18 17:28 35.202614 -120.406169 279 3441ft 106kts
31-Jul-18 17:29 35.205063 -120.441546 280 3410ft 105kts
31-Jul-18 17:30 35.210538 -120.476334 280 3377ft 103kts
31-Jul-18 17:31 35.215665 -120.511254 283 3303ft 106kts
31-Jul-18 17:32 35.200520 -120.510920 59 3284ft 108kts
31-Jul-18 17:33 35.217275 -120.523723 245 3249ft 110kts
31-Jul-18 17:34 35.197329 -120.508268 105 3359ft 107kts
31-Jul-18 17:35 35.201655 -120.504734 256 3306ft 129kts
31-Jul-18 17:36 35.193670 -120.551271 265 2108ft 134kts
31-Jul-18 17:37 35.189362 -120.594394 263 1553ft 129kts
31-Jul-18 17:38 35.189454 -120.637499 276 1489ft 125kts
31-Jul-18 17:39 35.196728 -120.663644 26 1520ft 101kts
31-Jul-18 17:40 35.216151 -120.636414 47 958ft 84kts
31-Jul-18 17:41 35.231759 -120.631271 306 331ft 63kts
31-Jul-18 17:42 35.237940 -120.642782 205 183ft 7kts

Navigation Log

Ident Type
Flight plan parsing failed, navigation log unavailable